KLHM/LHM METAR and TAF weather

Enter ICAO airport designator
Station Type Date Time Source
KLHM METAR 2020/01/23 21:15 UTC NOAA

KLHM 232115Z AUTO 26004KT 10SM SCT110 12/10 A3020 RMK AO1


Station Type Date Time Source
KLHM Decoded METAR 2020/01/23 21:15 UTC NOAA

Station name not available
Jan 23, 2020 - 04:15 PM EST / 2020.01.23 2115 UTC
Wind: from the W (260 degrees) at 5 MPH (4 KT):0
Visibility: 10 mile(s):0
Sky conditions: partly cloudy
Temperature: 53 F (12 C)
Dew Point: 50 F (10 C)
Relative Humidity: 87%
Pressure (altimeter): 30.2 in. Hg (1022 hPa)
ob: KLHM 232115Z AUTO 26004KT 10SM SCT110 12/10 A3020 RMK AO1
cycle: 21

Station Type Date Time Source
KLHM TAF UTC NOAA

Error!

Example: see airport list